Time;durP1;ratioP1;P1;durP2;ratioP2;P2;SDS_P1;SDS_P2;PMS_P1;PMS_P2;Temp;Humidity;BMP_temperature;BMP_pressure;BME280_temperature;BME280_humidity;BME280_pressure;Samples;Min_cycle;Max_cycle;Signal;HPM_P1;HPM_P2
2023/08/21 00:02:27;;;;;;;3.25;0.60;;;;;;;18.77;100.00;101217.16;5011624;28;20087;-73
2023/08/21 00:05:13;;;;;;;2.80;0.70;;;;;;;18.69;100.00;101210.31;5037696;28;20077;-73
2023/08/21 00:07:59;;;;;;;2.88;0.73;;;;;;;18.68;100.00;101211.50;5038604;28;20125;-73
2023/08/21 00:10:45;;;;;;;2.10;0.63;;;;;;;18.62;100.00;101210.84;5013641;28;20092;-73
2023/08/21 00:13:30;;;;;;;3.47;0.80;;;;;;;18.58;100.00;101211.81;5013261;28;20290;-72
2023/08/21 00:16:16;;;;;;;1.80;0.60;;;;;;;18.53;100.00;101213.66;5025046;28;20087;-73
2023/08/21 00:19:02;;;;;;;2.72;0.60;;;;;;;18.53;100.00;101210.84;5011434;28;20041;-73
2023/08/21 00:21:48;;;;;;;3.10;0.60;;;;;;;18.46;100.00;101206.88;5037097;28;20091;-73
2023/08/21 00:24:34;;;;;;;3.03;0.85;;;;;;;18.44;100.00;101211.97;5011705;28;20401;-72
2023/08/21 00:27:19;;;;;;;1.92;0.70;;;;;;;18.40;100.00;101209.00;5024831;28;20041;-73
2023/08/21 00:30:06;;;;;;;2.60;0.45;;;;;;;18.38;100.00;101211.31;5011573;28;20036;-73
2023/08/21 00:32:51;;;;;;;2.25;0.55;;;;;;;18.37;100.00;101223.75;5024685;28;20060;-73
2023/08/21 00:35:37;;;;;;;2.67;0.75;;;;;;;18.35;100.00;101216.78;5038666;28;20509;-72
2023/08/21 00:38:23;;;;;;;1.95;0.50;;;;;;;18.30;100.00;101214.94;5037589;28;20064;-73
2023/08/21 00:41:09;;;;;;;3.50;0.95;;;;;;;18.27;100.00;101219.25;5013756;28;20397;-73
2023/08/21 00:43:55;;;;;;;2.25;0.60;;;;;;;18.23;100.00;101218.25;5034860;28;20203;-73
2023/08/21 00:46:41;;;;;;;2.83;0.82;;;;;;;18.16;100.00;101217.91;5024770;28;20099;-72
2023/08/21 00:49:27;;;;;;;1.92;0.57;;;;;;;18.16;100.00;101217.91;5037301;28;20506;-72
2023/08/21 00:52:12;;;;;;;3.13;0.50;;;;;;;18.11;100.00;101215.28;5004249;28;20038;-72
2023/08/21 00:54:58;;;;;;;2.28;0.70;;;;;;;18.07;100.00;101211.47;5020282;28;20067;-72
2023/08/21 00:57:44;;;;;;;4.53;0.75;;;;;;;18.04;100.00;101207.31;5024359;28;20036;-73
2023/08/21 01:00:30;;;;;;;2.38;0.60;;;;;;;18.03;100.00;101208.47;5024525;28;20057;-72
2023/08/21 01:03:16;;;;;;;3.45;0.60;;;;;;;17.96;100.00;101208.13;5024345;28;20073;-72
2023/08/21 01:06:02;;;;;;;4.15;0.60;;;;;;;17.96;100.00;101216.56;5024334;28;20037;-73
2023/08/21 01:08:59;;;;;;;3.28;0.68;;;;;;;17.95;100.00;101216.91;5024492;28;20037;-72
2023/08/21 01:11:54;;;;;;;1.92;0.40;;;;;;;17.93;100.00;101214.41;5024466;28;20045;-73
2023/08/21 01:14:43;;;;;;;4.25;0.90;;;;;;;17.88;100.00;101216.53;5036484;28;20034;-72
2023/08/21 01:17:29;;;;;;;4.28;0.88;;;;;;;17.80;100.00;101206.91;5035846;28;20041;-72
2023/08/21 01:20:15;;;;;;;3.03;0.63;;;;;;;17.82;100.00;101207.44;5024234;28;20449;-73
2023/08/21 01:23:05;;;;;;;3.03;0.80;;;;;;;17.79;100.00;101219.31;5024119;28;20061;-72
2023/08/21 01:25:51;;;;;;;1.33;0.70;;;;;;;17.74;100.00;101211.84;5024285;28;20489;-73
2023/08/21 01:28:37;;;;;;;2.15;0.60;;;;;;;17.72;100.00;101216.13;5004077;28;20030;-72
2023/08/21 01:31:28;;;;;;;4.18;0.60;;;;;;;17.71;100.00;101223.72;5025989;28;20044;-72
2023/08/21 01:34:14;;;;;;;3.17;0.70;;;;;;;17.67;100.00;101216.28;5008181;28;20456;-72
2023/08/21 01:37:00;;;;;;;4.03;0.80;;;;;;;17.65;100.00;101231.47;5005559;28;20037;-72
2023/08/21 01:39:46;;;;;;;1.65;0.40;;;;;;;17.61;100.00;101224.84;5004305;28;20478;-72
2023/08/21 01:42:32;;;;;;;3.05;0.60;;;;;;;17.58;100.00;101222.69;5024412;28;20076;-73
2023/08/21 01:45:17;;;;;;;2.47;0.70;;;;;;;17.54;100.00;101224.47;5037891;28;20036;-72
2023/08/21 01:48:03;;;;;;;4.00;0.60;;;;;;;17.49;100.00;101226.59;5017540;28;20037;-73
2023/08/21 01:50:49;;;;;;;2.75;0.75;;;;;;;17.47;100.00;101229.75;5008983;28;20041;-72
2023/08/21 01:53:35;;;;;;;4.05;1.00;;;;;;;17.43;100.00;101229.56;5023464;28;20041;-72
2023/08/21 01:56:21;;;;;;;2.28;0.68;;;;;;;17.39;100.00;101239.78;5022990;28;20063;-72
2023/08/21 01:59:06;;;;;;;1.63;0.65;;;;;;;17.37;100.00;101230.03;5003528;28;20052;-73
2023/08/21 02:01:53;;;;;;;3.15;0.77;;;;;;;17.43;100.00;101235.16;5036778;28;20045;-73
2023/08/21 02:04:39;;;;;;;3.95;0.70;;;;;;;17.34;100.00;101241.91;5018954;28;20030;-73
2023/08/21 02:07:25;;;;;;;2.65;0.65;;;;;;;17.33;100.00;101240.25;5009264;28;20038;-73
2023/08/21 02:10:11;;;;;;;2.22;0.60;;;;;;;17.28;100.00;101235.59;5016051;28;20065;-72
2023/08/21 02:12:56;;;;;;;3.58;0.77;;;;;;;17.28;100.00;101238.41;5005743;28;20135;-72
2023/08/21 02:15:42;;;;;;;3.08;0.65;;;;;;;17.24;100.00;101233.75;5022778;28;20038;-72
2023/08/21 02:18:28;;;;;;;4.00;0.98;;;;;;;17.21;100.00;101238.03;5023369;28;20084;-72
2023/08/21 02:21:14;;;;;;;3.88;0.80;;;;;;;17.22;100.00;101233.22;5035865;28;20037;-73
2023/08/21 02:23:59;;;;;;;3.40;0.70;;;;;;;17.16;100.00;101236.19;5022728;28;20030;-72
2023/08/21 02:26:45;;;;;;;1.67;0.50;;;;;;;17.12;100.00;101237.97;5008841;28;20151;-72
2023/08/21 02:29:31;;;;;;;2.35;0.52;;;;;;;17.13;100.00;101234.03;5009581;28;20400;-73
2023/08/21 02:32:17;;;;;;;2.47;0.93;;;;;;;17.10;100.00;101233.81;5009449;28;20036;-72
2023/08/21 02:35:03;;;;;;;1.52;0.73;;;;;;;17.05;100.00;101240.41;5022907;28;20034;-72
2023/08/21 02:37:49;;;;;;;3.05;0.73;;;;;;;17.05;100.00;101233.97;5021982;28;20029;-72
2023/08/21 02:40:34;;;;;;;1.77;0.55;;;;;;;17.04;100.00;101235.13;5022543;28;20041;-72
2023/08/21 02:43:20;;;;;;;3.95;0.88;;;;;;;17.00;100.00;101236.91;4999784;28;20091;-72
2023/08/21 02:46:06;;;;;;;1.45;0.52;;;;;;;16.95;100.00;101235.06;5026458;28;20128;-72
2023/08/21 02:48:52;;;;;;;3.13;0.60;;;;;;;16.97;100.00;101227.16;5012792;28;20133;-73
2023/08/21 02:51:38;;;;;;;2.55;0.57;;;;;;;16.93;100.00;101232.56;5013010;28;20037;-72
2023/08/21 02:54:23;;;;;;;3.92;0.70;;;;;;;16.90;100.00;101240.78;5040530;28;20065;-73
2023/08/21 02:57:09;;;;;;;2.00;0.60;;;;;;;16.87;100.00;101235.81;4994539;28;20041;-73
2023/08/21 02:59:55;;;;;;;3.15;0.60;;;;;;;16.84;100.00;101240.09;5035867;28;20025;-73
2023/08/21 03:02:43;;;;;;;4.50;0.90;;;;;;;16.82;100.00;101241.56;5039939;28;20045;-73
2023/08/21 03:05:29;;;;;;;2.38;0.60;;;;;;;16.80;100.00;101238.25;5027142;28;20071;-72
2023/08/21 03:08:14;;;;;;;2.75;0.50;;;;;;;16.81;100.00;101232.31;5039223;28;20041;-72
2023/08/21 03:11:00;;;;;;;3.22;0.52;;;;;;;16.77;100.00;101238.88;5012797;28;20029;-72
2023/08/21 03:13:46;;;;;;;4.03;0.70;;;;;;;16.81;100.00;101239.91;5011967;28;20044;-73
2023/08/21 03:16:32;;;;;;;4.15;0.98;;;;;;;16.77;100.00;101239.72;5012302;28;20042;-73
2023/08/21 03:19:17;;;;;;;1.80;0.60;;;;;;;16.72;100.00;101232.22;5039627;28;20453;-72
2023/08/21 03:22:03;;;;;;;3.50;0.73;;;;;;;16.67;100.00;101235.16;5026415;28;20037;-73
2023/08/21 03:24:49;;;;;;;2.42;0.73;;;;;;;16.66;100.00;101239.13;5026521;28;20079;-73
2023/08/21 03:27:39;;;;;;;4.10;0.70;;;;;;;16.66;100.00;101241.91;5026060;28;20033;-73
2023/08/21 03:30:24;;;;;;;2.75;0.90;;;;;;;16.65;100.00;101231.00;5020383;28;20076;-72
2023/08/21 03:33:10;;;;;;;3.47;0.60;;;;;;;16.60;100.00;101239.53;5016053;28;20409;-73
2023/08/21 03:35:56;;;;;;;2.90;0.60;;;;;;;16.62;100.00;101237.25;5024799;28;20494;-73
2023/08/21 03:38:42;;;;;;;3.70;0.90;;;;;;;16.56;100.00;101244.97;5038314;28;20034;-73
2023/08/21 03:41:27;;;;;;;3.55;0.80;;;;;;;16.55;100.00;101243.31;5026050;28;20034;-72
2023/08/21 03:44:13;;;;;;;4.13;0.90;;;;;;;16.54;100.00;101242.47;5026046;28;20109;-72
2023/08/21 03:46:59;;;;;;;4.55;0.80;;;;;;;16.54;100.00;101244.44;5011721;28;20116;-73
2023/08/21 03:49:48;;;;;;;2.60;0.60;;;;;;;16.51;100.00;101242.28;5026024;28;20029;-72
2023/08/21 03:52:33;;;;;;;2.47;0.90;;;;;;;16.45;100.00;101246.34;5013251;28;20064;-72
2023/08/21 03:55:19;;;;;;;2.15;0.85;;;;;;;16.47;100.00;101246.88;5012038;28;20033;-72
2023/08/21 03:58:05;;;;;;;1.85;0.77;;;;;;;16.42;100.00;101250.59;5025039;28;20036;-72
2023/08/21 04:00:51;;;;;;;1.85;0.80;;;;;;;16.41;100.00;101254.56;5026146;28;20038;-72
2023/08/21 04:03:37;;;;;;;4.35;0.82;;;;;;;16.38;100.00;101254.34;5005947;28;20109;-72
2023/08/21 04:06:22;;;;;;;5.15;0.88;;;;;;;16.35;100.00;101250.19;5022944;28;20040;-72
2023/08/21 04:09:08;;;;;;;3.35;0.85;;;;;;;16.35;100.00;101249.38;5025234;28;20044;-72
2023/08/21 04:11:54;;;;;;;4.85;1.02;;;;;;;16.33;100.00;101254.50;5026082;28;20037;-72
2023/08/21 04:14:40;;;;;;;2.92;0.70;;;;;;;16.31;100.00;101257.59;5039502;28;20029;-72
2023/08/21 04:17:26;;;;;;;2.88;0.93;;;;;;;16.28;100.00;101256.25;5025187;28;20104;-72
2023/08/21 04:20:11;;;;;;;3.72;0.82;;;;;;;16.28;100.00;101253.44;5038079;28;20083;-72
2023/08/21 04:22:57;;;;;;;2.42;0.90;;;;;;;16.28;100.00;101255.41;5038535;28;20033;-73
2023/08/21 04:25:43;;;;;;;3.40;0.82;;;;;;;16.24;100.00;101260.84;5025242;28;20038;-72
2023/08/21 04:28:32;;;;;;;3.40;0.95;;;;;;;16.21;100.00;101260.59;5025502;28;20037;-73
2023/08/21 04:31:18;;;;;;;3.63;0.75;;;;;;;16.20;100.00;101271.00;5016773;28;20034;-73
2023/08/21 04:34:04;;;;;;;3.10;0.80;;;;;;;16.19;100.00;101268.53;5021355;28;20042;-72
2023/08/21 04:36:49;;;;;;;2.38;0.82;;;;;;;16.21;100.00;101271.81;5011339;28;20059;-72
2023/08/21 04:39:36;;;;;;;2.03;0.70;;;;;;;16.15;100.00;101273.91;5011311;28;20564;-73
2023/08/21 04:42:22;;;;;;;4.07;0.95;;;;;;;16.18;100.00;101283.66;5023953;28;20120;-72
2023/08/21 04:45:08;;;;;;;5.60;0.90;;;;;;;16.14;100.00;101279.84;5024667;28;20033;-72
2023/08/21 04:47:54;;;;;;;2.28;0.85;;;;;;;16.13;100.00;101284.63;5010826;28;20033;-72
2023/08/21 04:50:40;;;;;;;3.22;0.70;;;;;;;16.09;100.00;101281.59;5010562;28;20401;-73
2023/08/21 04:53:25;;;;;;;4.50;0.80;;;;;;;16.10;100.00;101282.41;5024695;28;20033;-72
2023/08/21 04:56:11;;;;;;;3.67;0.80;;;;;;;16.07;100.00;101283.91;5005651;28;20029;-72
2023/08/21 04:58:57;;;;;;;3.72;0.93;;;;;;;16.03;100.00;101282.03;5011891;28;20065;-72
2023/08/21 05:01:43;;;;;;;5.57;1.02;;;;;;;16.03;100.00;101285.66;5008116;28;20041;-72
2023/08/21 05:04:29;;;;;;;4.90;1.23;;;;;;;16.02;100.00;101280.38;5017815;28;20109;-72
2023/08/21 05:07:15;;;;;;;4.68;1.10;;;;;;;16.03;100.00;101277.25;5013804;28;20045;-72
2023/08/21 05:10:01;;;;;;;2.70;0.93;;;;;;;15.98;100.00;101268.94;5004356;28;20073;-72
2023/08/21 05:12:47;;;;;;;4.65;1.13;;;;;;;15.99;100.00;101272.56;5018993;28;20559;-72
2023/08/21 05:15:33;;;;;;;3.53;0.95;;;;;;;15.96;100.00;101271.22;5024227;28;20095;-72
2023/08/21 05:18:19;;;;;;;4.15;0.85;;;;;;;15.95;100.00;101279.94;5024013;28;20057;-72
2023/08/21 05:21:04;;;;;;;2.80;0.70;;;;;;;15.93;100.00;101285.03;5023564;28;20033;-72
2023/08/21 05:23:50;;;;;;;4.93;0.80;;;;;;;15.95;100.00;101285.56;5023547;28;20026;-73
2023/08/21 05:26:37;;;;;;;5.25;0.93;;;;;;;15.92;100.00;101283.38;5037485;28;20125;-72
2023/08/21 05:29:23;;;;;;;3.83;0.93;;;;;;;15.94;100.00;101281.09;5023974;28;20033;-72
2023/08/21 05:32:08;;;;;;;2.22;0.68;;;;;;;15.95;100.00;101282.75;5024131;28;20030;-72
2023/08/21 05:34:54;;;;;;;3.97;0.98;;;;;;;15.99;100.00;101289.38;5035685;28;20040;-73
2023/08/21 05:37:40;;;;;;;3.60;0.77;;;;;;;16.04;100.00;101278.06;5023959;28;20040;-73
2023/08/21 05:40:26;;;;;;;3.47;1.00;;;;;;;16.11;100.00;101286.91;5009543;28;20045;-72
2023/08/21 05:43:11;;;;;;;5.47;1.00;;;;;;;16.17;100.00;101282.84;5036937;28;20029;-72
2023/08/21 05:45:57;;;;;;;6.35;0.90;;;;;;;16.25;100.00;101284.91;5010118;28;20036;-72
2023/08/21 05:48:43;;;;;;;2.78;1.23;;;;;;;16.34;100.00;101287.78;5009467;28;20040;-72
2023/08/21 05:51:29;;;;;;;2.78;0.90;;;;;;;16.43;100.00;101285.91;5023772;28;20095;-72
2023/08/21 05:54:14;;;;;;;4.00;0.95;;;;;;;16.58;100.00;101286.72;5009848;28;20037;-72
2023/08/21 05:57:00;;;;;;;4.72;0.90;;;;;;;16.68;100.00;101283.66;5009666;28;20069;-73
2023/08/21 05:59:46;;;;;;;5.80;1.13;;;;;;;16.82;100.00;101289.25;5023478;28;20090;-73
2023/08/21 06:02:32;;;;;;;4.95;0.90;;;;;;;16.95;100.00;101296.78;5009994;28;20122;-73
2023/08/21 06:05:18;;;;;;;5.97;1.20;;;;;;;17.10;100.00;101285.16;5036018;28;20128;-73
2023/08/21 06:08:04;;;;;;;2.83;0.93;;;;;;;17.24;100.00;101290.72;5023411;28;20041;-73
2023/08/21 06:10:53;;;;;;;4.03;1.08;;;;;;;17.41;100.00;101290.84;5010832;28;20065;-73
2023/08/21 06:13:38;;;;;;;5.00;1.35;;;;;;;17.56;100.00;101298.00;5030165;28;20070;-73
2023/08/21 06:16:24;;;;;;;4.53;1.27;;;;;;;17.73;100.00;101296.44;5035238;28;20144;-73
2023/08/21 06:19:10;;;;;;;5.50;1.40;;;;;;;17.89;100.00;101294.91;5022954;28;20406;-73
2023/08/21 06:21:56;;;;;;;6.30;1.30;;;;;;;18.04;100.00;101297.25;5009646;28;20060;-73
2023/08/21 06:24:41;;;;;;;5.03;1.02;;;;;;;18.20;100.00;101297.63;5009821;28;20030;-73
2023/08/21 06:27:27;;;;;;;5.65;1.30;;;;;;;18.40;100.00;101301.00;5022292;28;20045;-73
2023/08/21 06:30:13;;;;;;;5.05;1.63;;;;;;;18.57;100.00;101303.81;5023148;28;20496;-73
2023/08/21 06:32:59;;;;;;;5.78;1.40;;;;;;;18.74;100.00;101303.03;5018553;28;20033;-73
2023/08/21 06:35:45;;;;;;;7.07;1.60;;;;;;;18.90;100.00;101304.22;5022856;28;20053;-73
2023/08/21 06:38:30;;;;;;;5.30;1.38;;;;;;;19.07;100.00;101300.56;5036477;28;20033;-73
2023/08/21 06:41:16;;;;;;;9.15;1.63;;;;;;;19.30;100.00;101306.00;5016340;28;20045;-73
2023/08/21 06:44:02;;;;;;;7.03;1.95;;;;;;;19.46;100.00;101309.13;5019937;28;20033;-73
2023/08/21 06:46:48;;;;;;;5.68;1.45;;;;;;;19.66;100.00;101311.22;5036619;28;20079;-73
2023/08/21 06:49:33;;;;;;;11.80;2.20;;;;;;;19.82;100.00;101306.69;5023063;28;20490;-73
2023/08/21 06:52:19;;;;;;;9.15;1.80;;;;;;;19.99;100.00;101319.91;5016421;28;20398;-73
2023/08/21 06:55:06;;;;;;;9.10;1.58;;;;;;;20.19;100.00;101321.13;5019601;28;20435;-73
2023/08/21 06:57:51;;;;;;;9.70;1.60;;;;;;;20.39;100.00;101318.69;5002246;28;20034;-73
2023/08/21 07:00:37;;;;;;;6.78;1.60;;;;;;;20.57;100.00;101325.91;5024098;28;20038;-73
2023/08/21 07:03:23;;;;;;;5.85;1.60;;;;;;;20.72;100.00;101322.47;5009285;28;20064;-73
2023/08/21 07:06:09;;;;;;;4.55;1.20;;;;;;;20.91;100.00;101321.19;5035630;28;20048;-73
2023/08/21 07:08:54;;;;;;;6.32;1.55;;;;;;;21.11;100.00;101317.50;5026479;28;20038;-73
2023/08/21 07:11:40;;;;;;;8.05;1.08;;;;;;;21.26;100.00;101320.88;5021208;28;20040;-73
2023/08/21 07:14:26;;;;;;;7.10;1.38;;;;;;;21.42;100.00;101304.94;5005227;28;20501;-73
2023/08/21 07:17:12;;;;;;;6.18;1.23;;;;;;;21.56;100.00;101311.13;5022663;28;20041;-73
2023/08/21 07:19:57;;;;;;;8.98;1.45;;;;;;;21.75;100.00;101306.91;5008777;28;20069;-73
2023/08/21 07:22:43;;;;;;;5.00;1.20;;;;;;;21.92;100.00;101306.69;5022718;28;20033;-73
2023/08/21 07:25:29;;;;;;;6.78;1.30;;;;;;;22.11;100.00;101302.47;5007905;28;20026;-73
2023/08/21 07:28:15;;;;;;;8.13;1.50;;;;;;;22.29;100.00;101304.72;5021928;28;20069;-73
2023/08/21 07:31:01;;;;;;;7.35;1.70;;;;;;;22.44;100.00;101306.00;5022774;28;20033;-73
2023/08/21 07:33:47;;;;;;;6.07;0.90;;;;;;;22.62;100.00;101314.22;5011762;28;20061;-73
2023/08/21 07:36:33;;;;;;;5.53;1.52;;;;;;;22.72;100.00;101310.91;4999696;28;20528;-73
2023/08/21 07:39:18;;;;;;;4.38;1.30;;;;;;;22.93;100.00;101307.91;5007874;28;20120;-73
2023/08/21 07:42:04;;;;;;;8.02;1.80;;;;;;;23.05;100.00;101305.06;5013790;28;20041;-73
2023/08/21 07:44:50;;;;;;;8.80;1.83;;;;;;;23.13;100.00;101303.25;5019431;28;20030;-73
2023/08/21 07:47:36;;;;;;;6.03;1.38;;;;;;;23.26;100.00;101296.34;5015350;28;20034;-73
2023/08/21 07:50:22;;;;;;;15.25;4.53;;;;;;;23.45;100.00;101303.34;5011791;28;20355;-73
2023/08/21 07:53:07;;;;;;;9.48;3.60;;;;;;;23.66;100.00;101300.28;5009067;28;20495;-73
2023/08/21 07:55:53;;;;;;;10.07;2.47;;;;;;;23.78;100.00;101301.03;5030969;28;20038;-73
2023/08/21 07:58:39;;;;;;;8.18;1.65;;;;;;;23.95;100.00;101293.34;5012050;28;20030;-73
2023/08/21 08:01:25;;;;;;;6.72;1.83;;;;;;;24.04;100.00;101285.47;5008499;28;20038;-73
2023/08/21 08:04:11;;;;;;;7.13;1.50;;;;;;;24.21;100.00;101293.59;5005799;28;20061;-73
2023/08/21 08:06:57;;;;;;;8.20;1.80;;;;;;;24.34;100.00;101293.47;5014627;28;20090;-73
2023/08/21 08:09:43;;;;;;;5.50;1.52;;;;;;;24.49;100.00;101290.66;5008552;28;20037;-73
2023/08/21 08:12:28;;;;;;;6.07;1.52;;;;;;;24.65;100.00;101286.94;5017673;28;20044;-73
2023/08/21 08:15:14;;;;;;;9.85;1.70;;;;;;;24.73;100.00;101283.88;5025256;28;20033;-73
2023/08/21 08:18:01;;;;;;;5.90;1.27;;;;;;;24.82;100.00;101285.66;5025256;28;20048;-73
2023/08/21 08:20:47;;;;;;;5.05;1.23;;;;;;;25.00;100.00;101283.22;5011678;28;20417;-73
2023/08/21 08:23:32;;;;;;;6.00;1.00;;;;;;;25.22;100.00;101282.50;5037361;28;20037;-73
2023/08/21 08:26:18;;;;;;;6.05;1.35;;;;;;;25.30;100.00;101278.59;5011247;28;20025;-73
2023/08/21 08:29:05;;;;;;;4.68;1.00;;;;;;;25.33;100.00;101277.84;5024069;28;20488;-73
2023/08/21 08:31:50;;;;;;;6.25;1.35;;;;;;;25.48;100.00;101287.44;5017273;28;20033;-73
2023/08/21 08:34:36;;;;;;;7.78;1.20;;;;;;;25.60;100.00;101284.44;5020096;28;20049;-73
2023/08/21 08:37:22;;;;;;;6.15;1.58;;;;;;;25.75;100.00;101273.31;5021369;28;20402;-73
2023/08/21 08:40:08;;;;;;;9.57;1.50;;;;;;;25.86;100.00;101271.50;5036008;28;20045;-73
2023/08/21 08:42:54;;;;;;;4.07;0.85;;;;;;;26.03;100.00;101268.13;5010440;28;20401;-73
2023/08/21 08:45:40;;;;;;;6.25;1.30;;;;;;;26.16;100.00;101273.59;5010848;28;20025;-74
2023/08/21 08:48:26;;;;;;;4.80;1.20;;;;;;;26.22;100.00;101267.22;5024351;28;20045;-74
2023/08/21 08:51:12;;;;;;;7.47;1.27;;;;;;;26.35;100.00;101269.84;5023424;28;20047;-73
2023/08/21 08:53:58;;;;;;;6.40;1.73;;;;;;;26.52;100.00;101269.28;5024535;28;20449;-73
2023/08/21 08:56:44;;;;;;;6.40;1.30;;;;;;;26.66;100.00;101266.66;5007871;28;20072;-73
2023/08/21 08:59:31;;;;;;;6.65;1.20;;;;;;;26.83;100.00;101262.41;5024629;28;20192;-74
2023/08/21 09:02:16;;;;;;;3.50;1.05;;;;;;;26.97;100.00;101267.47;5010663;28;20045;-74
2023/08/21 09:05:04;;;;;;;5.63;1.20;;;;;;;27.01;100.00;101259.78;5024366;28;20067;-74
2023/08/21 09:08:12;;;;;;;3.83;0.95;;;;;;;27.24;100.00;101265.34;5012863;28;20042;-74
2023/08/21 09:11:01;;;;;;;6.45;1.17;;;;;;;27.38;100.00;101265.50;5024191;28;20410;-74
2023/08/21 09:13:50;;;;;;;6.07;1.38;;;;;;;27.48;99.62;101260.31;5010790;28;20033;-74
2023/08/21 09:16:36;;;;;;;5.03;0.98;;;;;;;27.70;100.00;101258.50;5009819;28;20053;-74
2023/08/21 09:19:24;;;;;;;5.60;1.10;;;;;;;27.73;99.97;101252.81;5036202;28;20030;-74
2023/08/21 09:22:14;;;;;;;8.55;1.35;;;;;;;27.89;100.00;101251.75;5010443;28;20033;-74
2023/08/21 09:25:06;;;;;;;6.13;1.58;;;;;;;28.03;97.49;101252.69;5024332;28;20025;-74
2023/08/21 09:27:55;;;;;;;6.10;1.20;;;;;;;28.16;98.97;101246.66;5023498;28;20474;-74
2023/08/21 09:30:45;;;;;;;5.30;1.20;;;;;;;28.29;96.24;101251.63;5024329;28;20037;-74
2023/08/21 09:33:31;;;;;;;5.63;1.15;;;;;;;28.37;95.25;101251.69;5036451;28;20038;-74
2023/08/21 09:36:17;;;;;;;6.18;1.10;;;;;;;28.39;92.03;101250.09;5010221;28;20417;-74
2023/08/21 09:39:05;;;;;;;4.68;1.08;;;;;;;28.49;91.15;101248.53;5023368;28;20069;-74
2023/08/21 09:41:58;;;;;;;3.53;1.00;;;;;;;28.50;91.45;101248.13;5023180;28;20067;-74
2023/08/21 09:44:43;;;;;;;3.92;0.88;;;;;;;28.65;93.15;101251.88;5023909;28;20040;-74
2023/08/21 09:47:29;;;;;;;6.05;1.02;;;;;;;28.68;89.23;101242.50;5023307;28;20501;-74
2023/08/21 09:50:15;;;;;;;7.85;1.10;;;;;;;28.85;85.93;101245.84;5009980;28;20037;-74
2023/08/21 09:53:02;;;;;;;5.22;1.23;;;;;;;28.93;87.15;101244.66;5023648;28;20034;-74
2023/08/21 09:55:49;;;;;;;3.38;0.90;;;;;;;29.08;90.10;101240.63;5012933;28;20060;-74
2023/08/21 09:58:35;;;;;;;2.83;0.90;;;;;;;29.22;90.15;101234.13;5009256;28;20072;-74
2023/08/21 10:01:21;;;;;;;4.65;1.00;;;;;;;29.35;87.79;101237.44;5023445;28;20034;-74
2023/08/21 10:04:07;;;;;;;6.97;1.23;;;;;;;29.45;90.50;101239.53;5023423;28;20025;-74
2023/08/21 10:06:53;;;;;;;4.03;0.80;;;;;;;29.57;82.94;101238.28;5023609;28;20041;-74
2023/08/21 10:09:40;;;;;;;4.45;0.95;;;;;;;29.58;80.29;101239.91;5020362;28;20040;-74
2023/08/21 10:12:26;;;;;;;5.70;1.17;;;;;;;29.71;80.99;101231.78;5015320;28;20104;-74
2023/08/21 10:15:11;;;;;;;5.60;1.10;;;;;;;29.79;83.11;101234.25;5023353;28;20120;-74
2023/08/21 10:17:57;;;;;;;4.15;1.00;;;;;;;29.82;80.90;101226.88;5008850;28;20060;-74
2023/08/21 10:20:43;;;;;;;4.93;1.08;;;;;;;29.87;78.24;101222.81;5023331;28;20034;-74
2023/08/21 10:23:30;;;;;;;2.65;0.70;;;;;;;29.95;80.93;101210.09;5008055;28;20043;-74
2023/08/21 10:26:18;;;;;;;5.28;1.10;;;;;;;30.13;82.93;101219.47;5023420;28;20375;-74
2023/08/21 10:29:06;;;;;;;3.95;1.02;;;;;;;30.23;79.56;101217.88;5023554;28;20034;-74
2023/08/21 10:32:05;;;;;;;3.63;1.02;;;;;;;30.20;74.81;101207.19;5009711;28;20034;-74
2023/08/21 10:34:52;;;;;;;3.55;0.80;;;;;;;30.27;74.65;101212.94;5033289;28;20482;-74
2023/08/21 10:38:05;;;;;;;4.25;0.93;;;;;;;30.32;70.97;101215.38;4998080;28;20033;-74
2023/08/21 10:41:03;;;;;;;3.83;0.90;;;;;;;30.38;69.82;101210.88;5025448;28;20034;-74
2023/08/21 10:43:49;;;;;;;4.22;0.90;;;;;;;30.47;69.18;101202.63;5009517;28;20263;-74
2023/08/21 10:46:51;;;;;;;5.03;1.10;;;;;;;30.47;71.33;101214.09;5009282;28;20030;-74
2023/08/21 10:49:37;;;;;;;4.97;0.90;;;;;;;30.59;75.39;101207.13;5022613;28;20052;-74
2023/08/21 10:52:30;;;;;;;5.00;0.90;;;;;;;30.76;76.42;101205.41;5009692;28;20033;-74
2023/08/21 10:55:18;;;;;;;3.35;0.70;;;;;;;30.86;71.17;101198.81;5018113;28;20073;-74
2023/08/21 10:58:04;;;;;;;2.95;0.70;;;;;;;30.98;70.37;101199.56;5034757;28;20063;-74
2023/08/21 11:00:57;;;;;;;3.15;0.70;;;;;;;31.00;67.70;101197.94;5003359;28;20042;-74
2023/08/21 11:03:46;;;;;;;3.08;0.80;;;;;;;31.14;68.95;101194.16;5025212;28;20036;-74
2023/08/21 11:06:32;;;;;;;3.20;0.70;;;;;;;31.12;66.49;101191.72;5023096;28;20497;-74
2023/08/21 11:09:18;;;;;;;4.45;0.73;;;;;;;31.27;63.85;101195.31;5039630;28;20038;-74
2023/08/21 11:12:11;;;;;;;3.78;0.52;;;;;;;31.32;63.46;101186.25;5002864;28;20037;-74
2023/08/21 11:14:57;;;;;;;3.38;0.65;;;;;;;31.34;62.82;101186.66;5026116;28;20485;-74
2023/08/21 11:17:51;;;;;;;3.17;0.60;;;;;;;31.27;63.16;101175.22;5026329;28;20105;-74
2023/08/21 11:20:37;;;;;;;4.05;0.65;;;;;;;31.35;61.29;101173.94;5012577;28;20123;-74
2023/08/21 11:23:32;;;;;;;4.03;0.68;;;;;;;31.44;60.44;101169.78;5026577;28;20038;-74
2023/08/21 11:26:17;;;;;;;2.83;0.63;;;;;;;31.49;63.71;101169.34;5025022;28;20032;-74
2023/08/21 11:29:03;;;;;;;3.50;0.80;;;;;;;31.58;62.18;101170.47;5038161;28;20037;-74
2023/08/21 11:31:49;;;;;;;4.15;0.77;;;;;;;31.52;62.12;101168.50;5038752;28;20123;-74
2023/08/21 11:34:35;;;;;;;2.70;0.63;;;;;;;31.46;59.95;101164.47;5012166;28;20112;-74
2023/08/21 11:37:25;;;;;;;5.35;1.00;;;;;;;31.45;60.07;101160.75;5025456;28;20045;-74
2023/08/21 11:40:11;;;;;;;4.55;0.70;;;;;;;31.49;58.02;101157.88;5012404;28;20553;-74
2023/08/21 11:43:00;;;;;;;4.38;0.77;;;;;;;31.57;58.26;101168.06;5025725;28;20038;-74
2023/08/21 11:45:46;;;;;;;5.20;0.80;;;;;;;31.60;58.43;101161.47;5026114;28;20037;-74
2023/08/21 11:48:32;;;;;;;3.47;0.80;;;;;;;31.66;58.45;101158.94;5012224;28;20044;-74
2023/08/21 11:51:18;;;;;;;4.25;0.68;;;;;;;31.77;59.15;101149.00;5012303;28;20095;-74
2023/08/21 11:54:04;;;;;;;2.80;0.90;;;;;;;31.91;62.05;101147.22;5025868;28;20043;-74
2023/08/21 11:56:49;;;;;;;3.72;0.52;;;;;;;31.95;60.67;101153.75;5008935;28;20470;-74
2023/08/21 11:59:36;;;;;;;3.35;0.65;;;;;;;31.96;56.75;101143.91;5038341;28;20034;-74
2023/08/21 12:02:26;;;;;;;2.78;0.50;;;;;;;32.09;55.52;101147.03;5006278;28;20034;-74
2023/08/21 12:05:14;;;;;;;3.08;0.77;;;;;;;32.11;55.51;101138.81;5011642;28;20087;-74
2023/08/21 12:08:00;;;;;;;2.65;0.73;;;;;;;32.17;54.59;101137.91;5025589;28;20067;-74
2023/08/21 12:10:49;;;;;;;2.78;0.75;;;;;;;32.28;53.72;101141.47;5013469;28;20026;-74
2023/08/21 12:13:35;;;;;;;2.85;0.50;;;;;;;32.33;52.83;101142.25;5026759;28;20037;-74
2023/08/21 12:16:21;;;;;;;2.10;0.40;;;;;;;32.41;51.97;101135.19;5024062;28;20037;-74
2023/08/21 12:19:09;;;;;;;3.08;0.70;;;;;;;32.51;52.68;101134.25;5024876;28;20413;-74
2023/08/21 12:21:55;;;;;;;6.03;0.95;;;;;;;32.56;52.49;101125.13;5025211;28;20498;-74
2023/08/21 12:24:40;;;;;;;2.72;0.60;;;;;;;32.74;52.29;101118.34;5024042;28;20572;-74
2023/08/21 12:27:26;;;;;;;2.03;0.50;;;;;;;32.75;51.41;101120.78;5024904;28;20045;-74
2023/08/21 12:30:12;;;;;;;3.17;0.47;;;;;;;32.77;51.37;101117.47;5011006;28;20034;-74
2023/08/21 12:32:58;;;;;;;4.70;0.60;;;;;;;32.70;50.66;101119.19;5011616;28;20199;-74
2023/08/21 12:35:43;;;;;;;3.47;0.60;;;;;;;32.77;50.39;101112.53;5019991;28;20033;-74
2023/08/21 12:38:29;;;;;;;2.78;0.65;;;;;;;32.71;50.49;101105.66;5018467;28;20044;-74
2023/08/21 12:41:15;;;;;;;2.78;0.52;;;;;;;32.70;52.66;101101.13;5014343;28;20060;-74
2023/08/21 12:44:02;;;;;;;4.63;0.80;;;;;;;32.78;51.69;101101.84;5025088;28;20033;-74
2023/08/21 12:46:48;;;;;;;2.20;0.60;;;;;;;32.87;49.92;101096.34;5011324;28;20041;-74
2023/08/21 12:49:35;;;;;;;2.75;0.60;;;;;;;32.93;49.89;101091.72;5024772;28;20033;-74